Time;durP1;ratioP1;P1;durP2;ratioP2;P2;SDS_P1;SDS_P2;PMS_P1;PMS_P2;Temp;Humidity;BMP_temperature;BMP_pressure;BME280_temperature;BME280_humidity;BME280_pressure;Samples;Min_cycle;Max_cycle;Signal;HPM_P1;HPM_P2
2023/05/05 00:00:53;;;;;;;14.52;2.60;;;11.30;99.90;;;;;;5058490;28;20040;-71
2023/05/05 00:03:23;;;;;;;10.70;3.03;;;11.30;99.90;;;;;;5058442;28;20100;-71
2023/05/05 00:05:50;;;;;;;13.50;2.53;;;11.30;99.90;;;;;;5058144;28;20032;-72
2023/05/05 00:08:16;;;;;;;9.07;2.10;;;11.30;99.90;;;;;;5059250;28;20372;-71
2023/05/05 00:10:45;;;;;;;16.23;2.40;;;11.20;99.90;;;;;;5056473;28;20045;-71
2023/05/05 00:13:10;;;;;;;11.23;2.30;;;11.20;99.90;;;;;;5059332;28;20037;-71
2023/05/05 00:15:37;;;;;;;9.07;2.45;;;11.20;99.90;;;;;;5057060;28;20032;-71
2023/05/05 00:18:03;;;;;;;7.68;2.00;;;11.10;99.90;;;;;;5046294;28;20138;-71
2023/05/05 00:20:29;;;;;;;16.35;2.35;;;11.10;99.90;;;;;;5021352;28;20467;-71
2023/05/05 00:22:55;;;;;;;6.78;2.25;;;11.10;99.90;;;;;;5058163;28;20035;-71
2023/05/05 00:25:20;;;;;;;9.00;2.30;;;11.10;99.90;;;;;;5057530;28;20055;-71
2023/05/05 00:27:46;;;;;;;9.98;2.05;;;11.00;99.90;;;;;;5055154;28;20035;-71
2023/05/05 00:30:12;;;;;;;9.18;2.50;;;11.00;99.90;;;;;;5045039;28;20040;-71
2023/05/05 00:32:38;;;;;;;10.57;2.85;;;11.00;99.90;;;;;;5046475;28;20024;-71
2023/05/05 00:35:05;;;;;;;9.68;2.70;;;10.90;99.90;;;;;;5038093;28;20554;-71
2023/05/05 00:37:30;;;;;;;6.88;2.10;;;10.90;99.90;;;;;;5055087;28;20115;-71
2023/05/05 00:39:57;;;;;;;7.75;2.70;;;10.80;99.90;;;;;;5067145;28;20249;-71
2023/05/05 00:42:22;;;;;;;12.20;3.08;;;10.80;99.90;;;;;;5056446;28;20033;-71
2023/05/05 00:44:48;;;;;;;8.45;2.22;;;10.80;99.90;;;;;;5021247;28;20052;-71
2023/05/05 00:47:15;;;;;;;11.32;2.60;;;10.80;99.90;;;;;;5052343;28;20395;-71
2023/05/05 00:49:41;;;;;;;11.00;2.20;;;10.80;99.90;;;;;;5057104;28;20028;-71
2023/05/05 00:52:08;;;;;;;12.65;2.38;;;10.80;99.90;;;;;;5052588;28;20098;-71
2023/05/05 00:54:34;;;;;;;14.38;2.80;;;10.70;99.90;;;;;;5046975;28;20043;-71
2023/05/05 00:57:03;;;;;;;11.52;2.60;;;10.80;99.90;;;;;;5046092;28;20142;-71
2023/05/05 00:59:29;;;;;;;9.77;3.00;;;10.70;99.90;;;;;;5038896;28;20480;-71
2023/05/05 01:01:55;;;;;;;8.25;2.42;;;10.70;99.90;;;;;;5033526;28;20032;-71
2023/05/05 01:04:21;;;;;;;9.27;3.17;;;10.60;99.90;;;;;;5053596;28;20070;-71
2023/05/05 01:07:16;;;;;;;11.82;3.35;;;10.50;99.90;;;;;;5043925;28;20024;-71
2023/05/05 01:10:00;;;;;;;15.43;3.50;;;10.60;99.90;;;;;;5046831;28;20068;-71
2023/05/05 01:12:49;;;;;;;11.02;3.63;;;10.60;99.90;;;;;;5037627;28;20028;-71
2023/05/05 01:15:25;;;;;;;19.08;3.13;;;10.70;99.90;;;;;;5076221;28;20051;-71
2023/05/05 01:18:33;;;;;;;13.77;3.88;;;10.70;99.90;;;;;;5045615;28;20040;-71
2023/05/05 01:21:23;;;;;;;12.98;3.08;;;10.70;99.90;;;;;;5015185;28;20475;-71
2023/05/05 01:24:16;;;;;;;10.50;3.67;;;10.70;99.90;;;;;;5057217;28;20029;-71
2023/05/05 01:27:12;;;;;;;11.82;4.00;;;10.70;99.90;;;;;;5040382;28;20082;-71
2023/05/05 01:29:56;;;;;;;8.90;3.22;;;10.70;99.90;;;;;;5056460;28;20037;-71
2023/05/05 01:32:26;;;;;;;10.38;2.92;;;10.80;99.90;;;;;;5056324;28;20251;-72
2023/05/05 01:35:00;;;;;;;18.77;3.22;;;10.80;99.90;;;;;;5050472;28;20125;-71
2023/05/05 01:37:50;;;;;;;13.35;3.08;;;10.80;99.90;;;;;;5050394;28;20062;-71
2023/05/05 01:40:20;;;;;;;10.20;2.88;;;10.70;99.90;;;;;;5035226;28;20035;-71
2023/05/05 01:42:47;;;;;;;7.05;3.50;;;10.70;99.90;;;;;;5052701;28;20087;-71
2023/05/05 01:45:15;;;;;;;10.63;3.67;;;10.70;99.90;;;;;;5056401;28;20063;-71
2023/05/05 01:47:42;;;;;;;13.20;3.80;;;10.70;99.90;;;;;;5045501;28;20466;-71
2023/05/05 01:50:09;;;;;;;12.23;3.55;;;10.60;99.90;;;;;;5042583;28;20048;-71
2023/05/05 01:52:36;;;;;;;10.00;3.80;;;10.60;99.90;;;;;;5051911;28;20080;-71
2023/05/05 01:55:03;;;;;;;15.95;4.43;;;10.60;99.90;;;;;;5055867;28;20044;-71
2023/05/05 01:57:32;;;;;;;10.85;4.30;;;10.70;99.90;;;;;;5054152;28;20503;-71
2023/05/05 01:59:58;;;;;;;12.88;3.78;;;10.70;99.90;;;;;;5050652;28;20447;-71
2023/05/05 02:02:27;;;;;;;11.13;3.50;;;10.70;99.90;;;;;;5052344;28;20111;-71
2023/05/05 02:04:55;;;;;;;15.63;4.50;;;10.80;99.90;;;;;;5056660;28;20034;-72
2023/05/05 02:07:22;;;;;;;15.05;4.20;;;10.80;99.90;;;;;;5054651;28;20480;-71
2023/05/05 02:09:48;;;;;;;14.13;4.18;;;10.80;99.90;;;;;;5048395;28;20031;-71
2023/05/05 02:12:17;;;;;;;12.10;3.88;;;10.80;99.90;;;;;;5062823;28;20764;-71
2023/05/05 02:14:43;;;;;;;15.32;4.20;;;10.90;99.90;;;;;;5046626;28;20512;-71
2023/05/05 02:17:10;;;;;;;13.68;3.50;;;10.90;99.90;;;;;;5042434;28;20123;-71
2023/05/05 02:19:40;;;;;;;12.85;3.60;;;11.00;99.90;;;;;;5058329;28;20024;-71
2023/05/05 02:22:06;;;;;;;12.82;3.80;;;11.10;99.90;;;;;;5058840;28;20526;-71
2023/05/05 02:24:32;;;;;;;16.58;3.92;;;11.20;99.90;;;;;;5058931;28;20033;-71
2023/05/05 02:27:00;;;;;;;11.07;4.57;;;11.30;99.90;;;;;;5059221;28;20472;-71
2023/05/05 02:29:34;;;;;;;15.60;4.53;;;11.30;99.90;;;;;;5046567;28;20059;-71
2023/05/05 02:32:04;;;;;;;16.75;4.65;;;11.30;99.90;;;;;;5057414;28;20433;-71
2023/05/05 02:34:35;;;;;;;23.70;5.40;;;11.40;99.90;;;;;;5059756;28;20139;-71
2023/05/05 02:37:04;;;;;;;18.00;5.90;;;11.40;99.90;;;;;;5039907;28;20036;-71
2023/05/05 02:39:57;;;;;;;21.92;6.22;;;11.40;99.90;;;;;;5043679;28;20109;-71
2023/05/05 02:42:27;;;;;;;14.48;6.18;;;11.40;99.90;;;;;;5060543;28;20421;-71
2023/05/05 02:44:56;;;;;;;20.33;5.72;;;11.50;99.90;;;;;;5060614;28;20031;-71
2023/05/05 02:47:26;;;;;;;20.00;7.88;;;11.50;99.90;;;;;;5056004;28;20494;-71
2023/05/05 02:49:52;;;;;;;19.90;7.97;;;11.50;99.90;;;;;;5035778;28;20038;-72
2023/05/05 02:52:18;;;;;;;21.92;7.95;;;11.50;99.90;;;;;;5054289;28;20342;-72
2023/05/05 02:54:43;;;;;;;21.90;8.30;;;11.50;99.90;;;;;;5057443;28;20025;-71
2023/05/05 02:57:17;;;;;;;16.58;8.32;;;11.50;99.90;;;;;;5077610;28;20177;-71
2023/05/05 03:00:08;;;;;;;17.05;8.55;;;11.50;99.90;;;;;;5061792;28;20035;-71
2023/05/05 03:02:33;;;;;;;16.17;8.55;;;11.60;99.90;;;;;;5059966;28;20025;-72
2023/05/05 03:05:09;;;;;;;15.55;9.25;;;11.60;99.90;;;;;;5059200;28;20038;-70
2023/05/05 03:07:52;;;;;;;23.88;10.25;;;11.60;99.90;;;;;;5041267;28;20044;-72
2023/05/05 03:10:22;;;;;;;21.60;9.68;;;11.50;99.90;;;;;;5059198;28;20036;-73
2023/05/05 03:12:55;;;;;;;21.83;9.45;;;11.60;99.90;;;;;;5067698;28;20042;-70
2023/05/05 03:15:26;;;;;;;22.38;9.68;;;11.50;99.90;;;;;;5080203;28;20628;-73
2023/05/05 03:17:52;;;;;;;;;;;11.40;99.90;;;;;;5071169;28;20177;-70
2023/05/05 03:20:20;;;;;;;22.40;10.18;;;11.50;99.90;;;;;;5059521;28;19927;-73
2023/05/05 03:22:46;;;;;;;24.70;10.18;;;11.50;99.90;;;;;;5057215;28;20105;-72
2023/05/05 03:25:12;;;;;;;23.20;10.25;;;11.50;99.90;;;;;;5051858;28;20062;-70
2023/05/05 03:27:38;;;;;;;17.80;9.52;;;11.40;99.90;;;;;;5059265;28;20031;-73
2023/05/05 03:30:04;;;;;;;23.75;10.15;;;11.50;99.90;;;;;;5058394;28;20024;-73
2023/05/05 03:32:30;;;;;;;20.63;9.75;;;11.40;99.90;;;;;;5056961;28;20032;-73
2023/05/05 03:34:55;;;;;;;26.15;10.55;;;11.50;99.90;;;;;;5058907;28;20020;-74
2023/05/05 03:37:21;;;;;;;25.50;10.80;;;11.40;99.90;;;;;;5056963;28;20025;-73
2023/05/05 03:39:47;;;;;;;20.90;10.85;;;11.40;99.90;;;;;;5058369;28;20036;-72
2023/05/05 03:42:12;;;;;;;16.27;9.13;;;11.30;99.90;;;;;;5052593;28;20075;-73
2023/05/05 03:44:38;;;;;;;24.63;10.35;;;11.40;99.90;;;;;;5054433;28;20196;-73
2023/05/05 03:47:04;;;;;;;21.38;10.43;;;11.40;99.90;;;;;;5068331;28;20127;-73
2023/05/05 03:49:29;;;;;;;24.88;11.18;;;11.40;99.90;;;;;;5080966;28;20027;-71
2023/05/05 03:51:55;;;;;;;24.00;12.50;;;11.30;99.90;;;;;;5046014;28;20028;-71
2023/05/05 03:54:20;;;;;;;23.27;11.93;;;11.30;99.90;;;;;;5059111;28;20036;-71
2023/05/05 03:56:46;;;;;;;20.33;11.75;;;11.30;99.90;;;;;;5059044;28;20060;-71
2023/05/05 03:59:12;;;;;;;22.13;10.63;;;11.30;99.90;;;;;;5049763;28;20506;-71
2023/05/05 04:01:37;;;;;;;20.65;11.13;;;11.30;99.90;;;;;;5058387;28;20542;-71
2023/05/05 04:04:03;;;;;;;18.13;10.77;;;11.40;99.90;;;;;;5060376;28;20262;-71
2023/05/05 04:06:28;;;;;;;19.10;11.02;;;11.40;99.90;;;;;;5058254;28;20393;-71
2023/05/05 04:08:54;;;;;;;19.48;10.23;;;11.50;99.90;;;;;;5056827;28;20043;-73
2023/05/05 04:11:20;;;;;;;22.20;10.88;;;11.50;99.90;;;;;;5056933;28;20052;-73
2023/05/05 04:13:47;;;;;;;20.33;9.93;;;11.50;99.90;;;;;;5057396;28;20460;-73
2023/05/05 04:16:13;;;;;;;18.95;9.70;;;11.60;99.90;;;;;;5038727;28;20452;-73
2023/05/05 04:18:38;;;;;;;20.10;8.95;;;11.60;99.90;;;;;;5050059;28;20036;-73
2023/05/05 04:21:04;;;;;;;16.50;9.00;;;11.50;99.90;;;;;;5048144;28;20083;-73
2023/05/05 04:23:30;;;;;;;19.38;7.68;;;11.40;99.90;;;;;;5059405;28;20036;-73
2023/05/05 04:25:56;;;;;;;18.10;9.10;;;11.30;99.90;;;;;;5057817;28;20086;-73
2023/05/05 04:28:21;;;;;;;20.02;8.35;;;11.30;99.90;;;;;;5059249;28;20454;-71
2023/05/05 04:30:47;;;;;;;19.48;9.00;;;11.20;99.90;;;;;;5055923;28;20025;-73
2023/05/05 04:33:13;;;;;;;25.73;9.88;;;11.10;99.90;;;;;;5054070;28;20191;-73
2023/05/05 04:35:38;;;;;;;17.33;8.45;;;11.20;99.90;;;;;;5055734;28;20021;-73
2023/05/05 04:38:04;;;;;;;19.02;9.55;;;11.20;99.90;;;;;;5057094;28;20101;-73
2023/05/05 04:40:30;;;;;;;14.82;9.57;;;11.20;99.90;;;;;;5056797;28;20075;-73
2023/05/05 04:42:55;;;;;;;16.90;9.10;;;11.30;99.90;;;;;;5057686;28;20387;-73
2023/05/05 04:45:21;;;;;;;22.98;10.90;;;11.40;99.90;;;;;;5056868;28;20028;-72
2023/05/05 04:47:46;;;;;;;20.13;10.60;;;11.50;99.90;;;;;;5057700;28;20044;-71
2023/05/05 04:50:12;;;;;;;24.45;12.05;;;11.50;99.90;;;;;;5057694;28;20557;-72
2023/05/05 04:52:38;;;;;;;23.63;11.93;;;11.60;99.90;;;;;;5057463;28;20063;-71
2023/05/05 04:55:04;;;;;;;21.58;12.20;;;11.60;99.90;;;;;;5040663;28;20490;-72
2023/05/05 04:57:30;;;;;;;18.73;10.90;;;11.70;99.90;;;;;;5056442;28;20040;-72
2023/05/05 04:59:56;;;;;;;21.42;11.68;;;11.70;99.90;;;;;;5056985;28;20441;-71
2023/05/05 05:02:21;;;;;;;25.48;12.27;;;11.80;99.90;;;;;;5054677;28;20032;-72
2023/05/05 05:04:47;;;;;;;22.15;12.55;;;11.90;99.90;;;;;;5054426;28;20082;-71
2023/05/05 05:07:13;;;;;;;17.30;10.63;;;11.90;99.90;;;;;;5053102;28;20064;-72
2023/05/05 05:09:39;;;;;;;21.48;11.32;;;12.00;99.90;;;;;;5052906;28;20060;-72
2023/05/05 05:12:06;;;;;;;17.20;11.43;;;12.00;99.90;;;;;;5065319;28;20039;-72
2023/05/05 05:14:36;;;;;;;17.27;10.57;;;12.10;99.90;;;;;;5075247;28;20118;-72
2023/05/05 05:17:02;;;;;;;17.42;9.95;;;12.00;99.90;;;;;;5032825;28;20118;-72
2023/05/05 05:19:28;;;;;;;17.92;10.50;;;12.00;99.90;;;;;;5054540;28;20233;-72
2023/05/05 05:21:54;;;;;;;18.83;10.57;;;11.90;99.90;;;;;;5056668;28;20059;-72
2023/05/05 05:24:19;;;;;;;20.35;10.07;;;11.90;99.90;;;;;;5056391;28;20491;-72
2023/05/05 05:26:45;;;;;;;15.35;10.68;;;11.80;99.90;;;;;;5057541;28;20020;-72
2023/05/05 05:29:10;;;;;;;17.33;10.40;;;11.90;99.90;;;;;;5068709;28;20478;-72
2023/05/05 05:31:36;;;;;;;17.92;11.05;;;11.90;99.90;;;;;;5053156;28;20024;-71
2023/05/05 05:34:02;;;;;;;24.77;12.55;;;11.90;99.90;;;;;;5057390;28;20091;-71
2023/05/05 05:36:27;;;;;;;24.15;11.95;;;12.10;99.90;;;;;;5053910;28;20029;-71
2023/05/05 05:38:53;;;;;;;19.33;12.10;;;12.50;99.90;;;;;;5047693;28;20072;-72
2023/05/05 05:41:19;;;;;;;19.67;10.95;;;12.90;99.90;;;;;;5052693;28;20491;-71
2023/05/05 05:43:44;;;;;;;20.13;9.93;;;13.10;99.90;;;;;;5054251;28;20119;-71
2023/05/05 05:46:11;;;;;;;15.75;8.70;;;13.40;99.90;;;;;;5053328;28;20369;-71
2023/05/05 05:48:37;;;;;;;10.77;7.40;;;13.60;99.90;;;;;;5056614;28;20029;-72
2023/05/05 05:51:02;;;;;;;14.55;6.68;;;13.80;99.90;;;;;;5056701;28;20039;-72
2023/05/05 05:53:28;;;;;;;14.98;6.05;;;13.80;99.90;;;;;;5054796;28;20060;-72
2023/05/05 05:55:54;;;;;;;14.13;5.15;;;13.70;99.90;;;;;;5053141;28;20032;-72
2023/05/05 05:58:19;;;;;;;15.85;5.03;;;13.80;99.90;;;;;;5058150;28;20144;-72
2023/05/05 06:00:46;;;;;;;10.98;4.35;;;13.90;99.90;;;;;;5049266;28;20511;-72
2023/05/05 06:03:12;;;;;;;16.45;4.28;;;13.80;99.90;;;;;;5050991;28;20093;-72
2023/05/05 06:05:37;;;;;;;14.05;4.78;;;13.60;99.90;;;;;;5035862;28;20037;-72
2023/05/05 06:08:03;;;;;;;12.50;3.70;;;13.60;99.90;;;;;;5054229;28;20070;-72
2023/05/05 06:10:29;;;;;;;11.45;3.63;;;13.50;99.90;;;;;;5056881;28;20036;-72
2023/05/05 06:12:54;;;;;;;12.77;3.50;;;13.60;99.90;;;;;;5055422;28;20045;-73
2023/05/05 06:15:20;;;;;;;9.02;2.92;;;13.50;99.90;;;;;;5053014;28;20476;-72
2023/05/05 06:17:46;;;;;;;13.27;3.60;;;13.50;99.90;;;;;;5050550;28;20066;-72
2023/05/05 06:20:12;;;;;;;16.40;3.45;;;13.50;99.90;;;;;;5033941;28;20061;-72
2023/05/05 06:22:38;;;;;;;13.88;3.45;;;13.50;99.90;;;;;;5046966;28;20052;-72
2023/05/05 06:25:04;;;;;;;16.50;4.05;;;13.60;99.90;;;;;;5050790;28;20128;-72
2023/05/05 06:27:30;;;;;;;11.90;2.88;;;13.50;99.90;;;;;;5051658;28;20548;-72
2023/05/05 06:29:55;;;;;;;15.57;3.05;;;13.40;99.90;;;;;;5052668;28;20048;-72
2023/05/05 06:32:21;;;;;;;13.30;3.40;;;13.40;99.90;;;;;;5052112;28;20044;-72
2023/05/05 06:34:47;;;;;;;12.10;2.95;;;13.50;99.90;;;;;;5052857;28;20028;-71
2023/05/05 06:37:13;;;;;;;13.07;3.28;;;13.50;99.90;;;;;;5035645;28;20037;-71
2023/05/05 06:39:38;;;;;;;12.52;2.95;;;13.60;99.90;;;;;;5054879;28;20055;-72
2023/05/05 06:42:04;;;;;;;14.32;3.13;;;13.70;99.90;;;;;;5038713;28;20476;-72
2023/05/05 06:44:30;;;;;;;13.23;2.60;;;14.00;99.90;;;;;;5057611;28;20490;-72
2023/05/05 06:46:55;;;;;;;12.80;2.65;;;14.30;99.90;;;;;;5057104;28;20025;-72
2023/05/05 06:49:21;;;;;;;14.25;2.50;;;14.40;99.90;;;;;;5059501;28;20040;-72
2023/05/05 06:51:47;;;;;;;21.55;3.60;;;14.50;99.90;;;;;;5059976;28;20032;-71
2023/05/05 06:54:13;;;;;;;11.82;2.53;;;14.40;99.90;;;;;;5060389;28;20032;-71
2023/05/05 06:56:38;;;;;;;12.88;2.40;;;14.40;99.90;;;;;;5055772;28;20028;-72
2023/05/05 06:59:04;;;;;;;15.68;2.22;;;14.50;99.90;;;;;;5041228;28;20251;-73
2023/05/05 07:01:29;;;;;;;11.85;2.30;;;14.40;99.90;;;;;;5057323;28;20032;-72
2023/05/05 07:03:55;;;;;;;12.75;2.80;;;14.60;99.90;;;;;;5060034;28;20094;-71
2023/05/05 07:06:21;;;;;;;12.65;2.05;;;14.70;99.90;;;;;;5057553;28;20519;-71
2023/05/05 07:08:47;;;;;;;12.82;2.38;;;14.60;99.90;;;;;;5039765;28;20162;-71
2023/05/05 07:11:12;;;;;;;12.68;2.42;;;14.70;99.90;;;;;;5041033;28;20025;-72
2023/05/05 07:13:38;;;;;;;11.18;2.42;;;14.90;99.90;;;;;;5060522;28;20101;-71
2023/05/05 07:16:04;;;;;;;23.60;2.80;;;14.80;99.90;;;;;;5059547;28;20522;-71
2023/05/05 07:18:29;;;;;;;12.60;2.45;;;14.70;99.90;;;;;;5058902;28;20051;-72
2023/05/05 07:20:55;;;;;;;14.77;2.67;;;14.90;99.90;;;;;;5058278;28;20506;-71
2023/05/05 07:23:21;;;;;;;13.35;2.10;;;14.80;99.90;;;;;;5028870;28;20200;-71
2023/05/05 07:25:46;;;;;;;12.93;1.98;;;14.90;99.90;;;;;;5060482;28;20035;-71
2023/05/05 07:28:12;;;;;;;12.85;2.20;;;15.10;99.90;;;;;;5056894;28;20932;-72
2023/05/05 07:30:38;;;;;;;15.27;2.10;;;15.40;99.90;;;;;;5054958;28;20020;-71
2023/05/05 07:33:04;;;;;;;11.70;2.13;;;15.60;99.90;;;;;;5048934;28;20112;-71
2023/05/05 07:35:29;;;;;;;13.95;2.10;;;15.60;99.90;;;;;;5025218;28;20123;-71
2023/05/05 07:37:55;;;;;;;11.52;2.17;;;16.00;99.90;;;;;;5023493;28;20647;-72
2023/05/05 07:40:21;;;;;;;13.20;2.35;;;16.50;99.90;;;;;;5054650;28;20455;-70
2023/05/05 07:42:46;;;;;;;15.43;2.10;;;16.50;99.90;;;;;;5047395;28;21711;-72
2023/05/05 07:45:12;;;;;;;12.88;1.63;;;16.50;99.90;;;;;;5045187;28;20099;-70
2023/05/05 07:47:39;;;;;;;9.55;1.77;;;16.60;99.90;;;;;;5050167;28;20028;-73
2023/05/05 07:50:05;;;;;;;11.50;2.05;;;16.20;99.90;;;;;;5059073;28;20024;-72
2023/05/05 07:52:31;;;;;;;12.55;1.90;;;16.20;99.90;;;;;;5055529;28;20089;-72
2023/05/05 07:54:57;;;;;;;13.82;2.00;;;16.70;99.90;;;;;;5057904;28;20020;-71
2023/05/05 07:57:22;;;;;;;11.18;1.88;;;16.90;99.90;;;;;;5059256;28;20033;-72
2023/05/05 07:59:48;;;;;;;10.82;1.75;;;17.20;99.90;;;;;;5055603;28;20036;-73
2023/05/05 08:02:13;;;;;;;8.90;1.58;;;16.90;99.90;;;;;;5048681;28;20578;-73
2023/05/05 08:04:40;;;;;;;12.50;1.80;;;16.90;99.90;;;;;;5035053;28;20450;-72
2023/05/05 08:07:07;;;;;;;11.43;2.20;;;17.40;99.90;;;;;;5038076;28;20028;-73
2023/05/05 08:09:33;;;;;;;11.60;2.13;;;18.50;99.90;;;;;;5033641;28;21850;-72
2023/05/05 08:12:00;;;;;;;12.80;1.85;;;19.00;99.30;;;;;;5017111;28;21470;-73
2023/05/05 08:14:26;;;;;;;13.65;1.92;;;19.70;99.00;;;;;;5046338;28;20095;-72
2023/05/05 08:16:51;;;;;;;11.45;2.10;;;19.60;97.80;;;;;;5049488;28;20115;-72
2023/05/05 08:19:18;;;;;;;11.85;1.70;;;20.00;97.10;;;;;;5046145;28;20074;-73
2023/05/05 08:21:43;;;;;;;10.38;1.70;;;19.80;97.30;;;;;;5049652;28;20036;-73
2023/05/05 08:24:09;;;;;;;10.35;1.88;;;19.70;97.60;;;;;;5053168;28;20535;-71
2023/05/05 08:26:35;;;;;;;10.25;2.58;;;20.00;97.50;;;;;;5045588;28;20435;-73
2023/05/05 08:29:00;;;;;;;11.65;2.03;;;19.40;97.10;;;;;;5039453;28;20063;-73
2023/05/05 08:31:27;;;;;;;11.02;1.73;;;19.00;97.80;;;;;;5041860;28;20021;-73
2023/05/05 08:33:53;;;;;;;13.88;1.85;;;19.20;99.90;;;;;;5030950;28;20044;-73
2023/05/05 08:36:19;;;;;;;10.00;1.55;;;19.70;99.00;;;;;;5039692;28;20040;-72
2023/05/05 08:38:45;;;;;;;10.20;2.33;;;19.80;96.80;;;;;;5040419;28;20515;-72
2023/05/05 08:41:13;;;;;;;9.60;1.95;;;20.30;94.80;;;;;;5047382;28;20082;-72
2023/05/05 08:43:38;;;;;;;12.02;1.67;;;20.20;95.70;;;;;;5053420;28;20035;-72
2023/05/05 08:46:04;;;;;;;11.63;2.17;;;20.30;96.00;;;;;;5051557;28;20040;-71
2023/05/05 08:48:33;;;;;;;8.25;1.90;;;21.40;93.10;;;;;;5051074;28;20063;-71
2023/05/05 08:51:03;;;;;;;8.73;1.80;;;23.80;62.50;;;;;;5036871;28;20032;-72
2023/05/05 08:53:52;;;;;;;11.55;2.08;;;25.50;59.20;;;;;;5058191;28;20039;-71
2023/05/05 08:56:19;;;;;;;9.10;1.77;;;25.70;49.10;;;;;;5024669;28;20037;-70
2023/05/05 08:58:46;;;;;;;11.05;1.92;;;26.60;48.30;;;;;;5057439;28;20041;-70
2023/05/05 09:01:12;;;;;;;8.90;1.63;;;25.90;48.90;;;;;;5055579;28;20051;-72
2023/05/05 09:03:39;;;;;;;11.23;1.90;;;25.60;52.60;;;;;;5036615;28;20036;-72
2023/05/05 09:06:05;;;;;;;9.13;1.60;;;25.20;55.60;;;;;;5053000;28;20033;-71
2023/05/05 09:08:31;;;;;;;10.70;1.83;;;24.60;56.60;;;;;;5055459;28;20044;-72
2023/05/05 09:10:57;;;;;;;9.35;1.63;;;24.00;65.10;;;;;;5036695;28;20064;-72
2023/05/05 09:13:23;;;;;;;13.32;1.80;;;23.00;69.90;;;;;;5055472;28;20110;-72
2023/05/05 09:15:48;;;;;;;7.72;1.75;;;23.50;72.80;;;;;;5051860;28;20024;-72
2023/05/05 09:18:14;;;;;;;11.73;1.65;;;23.00;63.80;;;;;;5053098;28;20051;-72
2023/05/05 09:20:40;;;;;;;7.88;1.80;;;22.40;65.90;;;;;;5058074;28;20055;-71
2023/05/05 09:23:07;;;;;;;12.85;1.88;;;22.80;76.40;;;;;;5042968;28;20048;-71
2023/05/05 09:25:33;;;;;;;9.80;1.60;;;23.40;72.70;;;;;;5037954;28;20025;-71
2023/05/05 09:28:10;;;;;;;11.85;1.52;;;24.10;60.80;;;;;;5057093;28;20031;-71
2023/05/05 09:30:36;;;;;;;5.10;1.13;;;23.40;58.80;;;;;;5039395;28;20024;-71
2023/05/05 09:33:02;;;;;;;6.38;1.27;;;22.50;65.00;;;;;;5058138;28;20024;-71
2023/05/05 09:35:28;;;;;;;6.78;1.73;;;22.10;76.20;;;;;;5057892;28;20028;-71
2023/05/05 09:37:54;;;;;;;11.80;1.98;;;21.50;80.90;;;;;;5057106;28;20049;-71
2023/05/05 09:40:20;;;;;;;9.07;1.58;;;20.60;83.30;;;;;;5058304;28;20433;-71
2023/05/05 09:42:46;;;;;;;9.80;1.67;;;20.00;93.90;;;;;;5057491;28;20039;-71
2023/05/05 09:45:18;;;;;;;11.95;1.40;;;19.60;95.40;;;;;;5076077;28;20035;-71
2023/05/05 09:47:47;;;;;;;14.73;1.95;;;19.30;98.20;;;;;;5074521;28;20035;-71
2023/05/05 09:50:20;;;;;;;13.35;2.25;;;18.90;97.10;;;;;;5057660;28;20515;-71
2023/05/05 09:53:00;;;;;;;10.10;2.00;;;19.00;98.80;;;;;;5057406;28;20036;-71
2023/05/05 09:55:26;;;;;;;12.77;1.88;;;18.90;99.80;;;;;;5053641;28;20886;-71
2023/05/05 09:57:52;;;;;;;11.35;1.52;;;19.50;97.20;;;;;;5054098;28;20043;-71
2023/05/05 10:00:18;;;;;;;13.05;2.05;;;19.60;98.00;;;;;;5058027;28;20507;-71
2023/05/05 10:02:44;;;;;;;10.73;1.33;;;19.80;97.00;;;;;;5074510;28;20032;-71
2023/05/05 10:05:17;;;;;;;8.73;1.80;;;21.00;96.90;;;;;;5056286;28;20413;-71
2023/05/05 10:07:46;;;;;;;9.13;1.63;;;21.70;86.70;;;;;;5057892;28;20537;-71
2023/05/05 10:10:15;;;;;;;8.55;1.33;;;21.50;83.80;;;;;;5057888;28;20127;-71
2023/05/05 10:12:41;;;;;;;8.55;1.20;;;21.70;84.00;;;;;;5058425;28;20648;-71
2023/05/05 10:15:08;;;;;;;10.05;1.45;;;21.80;83.00;;;;;;5057635;28;20202;-71
2023/05/05 10:17:47;;;;;;;8.15;1.70;;;21.20;90.30;;;;;;5057074;28;20199;-72
2023/05/05 10:20:14;;;;;;;6.53;1.40;;;20.90;90.50;;;;;;5057482;28;20040;-71
2023/05/05 10:22:51;;;;;;;8.07;1.60;;;21.80;88.10;;;;;;5058916;28;20471;-71
2023/05/05 10:25:38;;;;;;;9.75;1.50;;;22.90;75.40;;;;;;5058721;28;20198;-71
2023/05/05 10:28:08;;;;;;;8.35;1.45;;;23.10;62.60;;;;;;5038604;28;20437;-72
2023/05/05 10:30:40;;;;;;;12.25;1.70;;;22.50;71.60;;;;;;5041339;28;20075;-71
2023/05/05 10:33:13;;;;;;;8.30;1.30;;;22.10;81.70;;;;;;5040217;28;20028;-71
2023/05/05 10:35:42;;;;;;;10.43;1.48;;;21.60;78.20;;;;;;5057648;28;20087;-71
2023/05/05 10:38:10;;;;;;;9.98;1.45;;;21.50;89.00;;;;;;5061867;28;20032;-72
2023/05/05 10:40:35;;;;;;;5.07;1.17;;;21.50;90.10;;;;;;5060993;28;20020;-71
2023/05/05 10:43:01;;;;;;;6.85;1.02;;;22.60;79.70;;;;;;5052225;28;20035;-71
2023/05/05 10:45:27;;;;;;;6.47;1.15;;;25.20;54.90;;;;;;5041072;28;20029;-71
2023/05/05 10:47:55;;;;;;;5.80;1.17;;;28.10;49.50;;;;;;5039443;28;20075;-71
2023/05/05 10:50:24;;;;;;;4.57;1.30;;;30.30;42.50;;;;;;5050419;28;20028;-69
2023/05/05 10:53:15;;;;;;;6.00;0.98;;;31.40;39.90;;;;;;5058063;28;20569;-69
2023/05/05 10:56:20;;;;;;;8.18;1.25;;;30.10;37.00;;;;;;5058858;28;20035;-71
2023/05/05 10:58:45;;;;;;;4.50;0.70;;;28.70;40.40;;;;;;5058857;28;20043;-71
2023/05/05 11:01:26;;;;;;;10.35;1.35;;;27.60;43.50;;;;;;5059678;28;20564;-71
2023/05/05 11:04:21;;;;;;;5.78;1.20;;;27.00;44.40;;;;;;5053199;28;20040;-71
2023/05/05 11:07:08;;;;;;;5.05;0.90;;;25.60;45.50;;;;;;5053305;28;20108;-71
2023/05/05 11:09:41;;;;;;;8.98;1.10;;;24.60;51.50;;;;;;5056936;28;20064;-71
2023/05/05 11:12:07;;;;;;;6.65;1.20;;;24.60;56.50;;;;;;5051965;28;20129;-71
2023/05/05 11:14:34;;;;;;;10.13;1.83;;;23.80;53.30;;;;;;5051263;28;20332;-71
2023/05/05 11:16:59;;;;;;;5.28;1.13;;;23.60;59.40;;;;;;5049263;28;20052;-72
2023/05/05 11:19:45;;;;;;;6.80;1.27;;;24.20;62.10;;;;;;5051979;28;20028;-71
2023/05/05 11:22:11;;;;;;;16.85;2.05;;;25.10;59.70;;;;;;5052496;28;20154;-71
2023/05/05 11:24:38;;;;;;;9.73;1.23;;;25.10;55.20;;;;;;5033684;28;20753;-71
2023/05/05 11:27:04;;;;;;;6.57;1.40;;;24.40;58.80;;;;;;5053687;28;20766;-71
2023/05/05 11:30:06;;;;;;;10.68;1.60;;;24.30;57.90;;;;;;5050278;28;20021;-71
2023/05/05 11:32:32;;;;;;;6.25;1.50;;;23.90;58.80;;;;;;5047705;28;20036;-71
2023/05/05 11:34:59;;;;;;;6.68;1.55;;;24.50;69.20;;;;;;5054743;28;20266;-71
2023/05/05 11:37:27;;;;;;;7.00;1.13;;;24.30;58.70;;;;;;5054697;28;20083;-71
2023/05/05 11:40:20;;;;;;;13.65;3.60;;;24.90;56.30;;;;;;5056711;28;20171;-71
2023/05/05 11:42:46;;;;;;;5.55;1.00;;;25.80;58.80;;;;;;5044878;28;20447;-71
2023/05/05 11:45:20;;;;;;;6.57;1.58;;;25.30;59.30;;;;;;5052905;28;20381;-71
2023/05/05 11:47:46;;;;;;;6.80;1.10;;;25.70;53.60;;;;;;5050713;28;20502;-72
2023/05/05 11:50:17;;;;;;;7.60;1.25;;;24.80;52.90;;;;;;5039910;28;20122;-71
2023/05/05 11:52:42;;;;;;;;;;;23.50;55.10;;;;;;5042042;28;20044;-71
2023/05/05 11:55:09;;;;;;;11.32;1.42;;;23.50;67.60;;;;;;5051652;28;19985;-71
2023/05/05 11:57:34;;;;;;;12.63;1.65;;;23.70;57.20;;;;;;5059310;28;20504;-71
2023/05/05 12:00:03;;;;;;;9.60;1.45;;;24.00;62.90;;;;;;5058707;28;20020;-71
2023/05/05 12:02:30;;;;;;;7.47;1.35;;;23.50;59.00;;;;;;5060183;28;20035;-71
2023/05/05 12:04:57;;;;;;;13.38;1.60;;;23.50;60.20;;;;;;5055967;28;20028;-71
2023/05/05 12:07:26;;;;;;;6.38;1.30;;;23.60;63.20;;;;;;5054862;28;20351;-71
2023/05/05 12:09:53;;;;;;;11.13;1.60;;;23.50;64.70;;;;;;5056160;28;20025;-71
2023/05/05 12:12:20;;;;;;;8.77;1.50;;;23.00;59.00;;;;;;5045705;28;21032;-72
2023/05/05 12:14:50;;;;;;;5.90;1.10;;;23.20;72.00;;;;;;5030459;28;20810;-71
2023/05/05 12:17:17;;;;;;;7.65;1.25;;;23.20;69.80;;;;;;5049910;28;20032;-71
2023/05/05 12:19:53;;;;;;;5.32;1.30;;;23.50;79.50;;;;;;5047167;28;20577;-71
2023/05/05 12:22:26;;;;;;;9.90;1.65;;;23.90;76.00;;;;;;5044000;28;20109;-71
2023/05/05 12:25:05;;;;;;;9.57;1.48;;;23.80;64.30;;;;;;5040460;28;20119;-71
2023/05/05 12:27:31;;;;;;;8.55;1.42;;;24.30;65.90;;;;;;5041245;28;20601;-71
2023/05/05 12:30:12;;;;;;;7.43;1.60;;;24.50;62.60;;;;;;5045011;28;20025;-71
2023/05/05 12:32:38;;;;;;;5.45;1.38;;;24.50;62.10;;;;;;5043025;28;20044;-71
2023/05/05 12:35:06;;;;;;;7.03;1.10;;;25.30;68.10;;;;;;5040126;28;20036;-69
2023/05/05 12:37:32;;;;;;;8.52;1.45;;;25.40;62.30;;;;;;5022461;28;20025;-71
2023/05/05 12:39:57;;;;;;;10.23;1.67;;;26.00;55.70;;;;;;5044848;28;20601;-71
2023/05/05 12:42:23;;;;;;;8.45;1.45;;;25.60;53.00;;;;;;5054591;28;20488;-71
2023/05/05 12:44:49;;;;;;;7.18;1.77;;;25.30;55.70;;;;;;5051438;28;20064;-71